Time;durP1;ratioP1;P1;durP2;ratioP2;P2;SDS_P1;SDS_P2;PMS_P1;PMS_P2;Temp;Humidity;BMP_temperature;BMP_pressure;BME280_temperature;BME280_humidity;BME280_pressure;Samples;Min_cycle;Max_cycle;Signal;HPM_P1;HPM_P2
2022/04/09 00:00:23;;;;;;;0.40;0.40;;;7.20;99.90;;;;;;5064250;28;20463;-80
2022/04/09 00:02:51;;;;;;;0.40;0.40;;;7.20;99.90;;;;;;5059524;28;20486;-80
2022/04/09 00:05:20;;;;;;;0.30;0.30;;;7.20;99.90;;;;;;5063543;28;20455;-79
2022/04/09 00:07:48;;;;;;;0.40;0.40;;;7.10;99.90;;;;;;5060518;28;20483;-80
2022/04/09 00:10:16;;;;;;;0.40;0.40;;;7.10;99.90;;;;;;5063504;28;20435;-79
2022/04/09 00:12:47;;;;;;;0.47;0.47;;;7.10;99.90;;;;;;5061185;28;20482;-79
2022/04/09 00:15:17;;;;;;;0.50;0.33;;;7.20;99.90;;;;;;5061227;28;20448;-80
2022/04/09 00:17:46;;;;;;;0.93;0.30;;;7.30;99.90;;;;;;5059742;28;20447;-79
2022/04/09 00:20:17;;;;;;;0.30;0.30;;;7.20;99.90;;;;;;5060708;28;20458;-79
2022/04/09 00:22:46;;;;;;;0.30;0.30;;;7.30;99.90;;;;;;5063828;28;20858;-79
2022/04/09 00:25:21;;;;;;;0.40;0.40;;;7.30;99.90;;;;;;5060367;28;20981;-80
2022/04/09 00:27:49;;;;;;;0.30;0.30;;;7.20;99.90;;;;;;5058296;28;20458;-79
2022/04/09 00:30:19;;;;;;;0.40;0.40;;;7.40;99.90;;;;;;5060266;28;20456;-79
2022/04/09 00:32:47;;;;;;;0.30;0.30;;;7.30;99.90;;;;;;5060285;28;20479;-80
2022/04/09 00:35:16;;;;;;;0.50;0.50;;;7.30;99.90;;;;;;5061468;28;20537;-78
2022/04/09 00:37:45;;;;;;;0.33;0.33;;;7.30;99.90;;;;;;5060827;28;20461;-79
2022/04/09 00:40:15;;;;;;;0.30;0.30;;;7.30;99.90;;;;;;5056459;28;20459;-79
2022/04/09 00:42:43;;;;;;;0.70;0.70;;;7.20;99.90;;;;;;5059067;28;20474;-80
2022/04/09 00:45:12;;;;;;;0.40;0.40;;;7.20;99.90;;;;;;5061319;28;20452;-79
2022/04/09 00:47:42;;;;;;;0.40;0.40;;;7.40;99.90;;;;;;5062052;28;20451;-81
2022/04/09 00:50:11;;;;;;;0.40;0.40;;;7.50;99.90;;;;;;5063704;28;20484;-80
2022/04/09 00:52:46;;;;;;;0.40;0.40;;;7.30;99.90;;;;;;5067702;28;20478;-79
2022/04/09 00:55:17;;;;;;;0.40;0.40;;;7.20;99.90;;;;;;5062788;28;20455;-80
2022/04/09 00:57:47;;;;;;;0.40;0.40;;;7.10;99.90;;;;;;5065472;28;20452;-80
2022/04/09 01:00:16;;;;;;;1.37;0.90;;;7.00;99.90;;;;;;5070544;28;20446;-80
2022/04/09 01:02:46;;;;;;;0.40;0.40;;;6.90;99.90;;;;;;5067101;28;20528;-80
2022/04/09 01:05:14;;;;;;;0.40;0.40;;;7.00;99.90;;;;;;5065707;28;20470;-80
2022/04/09 01:07:43;;;;;;;0.50;0.50;;;7.10;99.90;;;;;;5065811;28;20449;-80
2022/04/09 01:10:11;;;;;;;0.43;0.43;;;7.10;99.90;;;;;;5061035;28;20493;-80
2022/04/09 01:12:39;;;;;;;0.40;0.40;;;7.50;99.90;;;;;;5059056;28;20497;-80
2022/04/09 01:15:09;;;;;;;0.40;0.40;;;7.10;99.90;;;;;;5062558;28;20844;-82
2022/04/09 01:17:37;;;;;;;0.50;0.50;;;7.20;99.90;;;;;;5057445;28;20485;-79
2022/04/09 01:20:20;;;;;;;0.50;0.40;;;7.10;99.90;;;;;;5056116;28;20508;-79
2022/04/09 01:22:50;;;;;;;0.57;0.57;;;7.10;99.90;;;;;;5059784;28;20487;-80
2022/04/09 01:25:19;;;;;;;0.57;0.50;;;7.10;99.90;;;;;;5056130;28;20482;-79
2022/04/09 01:27:48;;;;;;;0.50;0.50;;;7.00;99.90;;;;;;5051991;28;20452;-79
2022/04/09 01:30:17;;;;;;;0.40;0.40;;;7.00;99.90;;;;;;5053137;28;20478;-79
2022/04/09 01:32:46;;;;;;;0.60;0.50;;;7.00;99.90;;;;;;5053768;28;20468;-79
2022/04/09 01:35:14;;;;;;;0.50;0.50;;;7.10;99.90;;;;;;5056495;28;20508;-79
2022/04/09 01:37:43;;;;;;;0.50;0.50;;;7.10;99.90;;;;;;5052680;28;20469;-79
2022/04/09 01:40:13;;;;;;;0.57;0.57;;;7.20;99.90;;;;;;5054217;28;20455;-78
2022/04/09 01:42:41;;;;;;;0.60;0.60;;;7.20;99.90;;;;;;5053401;28;20497;-78
2022/04/09 01:45:10;;;;;;;0.53;0.53;;;7.10;99.90;;;;;;5057666;28;20463;-79
2022/04/09 01:47:41;;;;;;;0.50;0.50;;;7.10;99.90;;;;;;5058896;28;20975;-78
2022/04/09 01:50:11;;;;;;;0.60;0.60;;;7.20;99.90;;;;;;5055577;28;21052;-79
2022/04/09 01:52:40;;;;;;;0.80;0.70;;;7.20;99.90;;;;;;5058616;28;20537;-79
2022/04/09 01:55:08;;;;;;;0.70;0.70;;;7.10;99.90;;;;;;5053666;28;20454;-79
2022/04/09 01:57:38;;;;;;;0.60;0.60;;;7.10;99.90;;;;;;5056735;28;20528;-79
2022/04/09 02:00:10;;;;;;;0.60;0.60;;;7.10;99.90;;;;;;5058247;28;21011;-78
2022/04/09 02:02:38;;;;;;;0.60;0.60;;;7.10;99.90;;;;;;5057914;28;20521;-79
2022/04/09 02:05:07;;;;;;;0.70;0.70;;;7.10;99.90;;;;;;5055476;28;20534;-80
2022/04/09 02:07:36;;;;;;;1.43;0.80;;;7.10;99.90;;;;;;5060079;28;20464;-81
2022/04/09 02:10:04;;;;;;;0.80;0.80;;;7.20;99.90;;;;;;5063048;28;20467;-80
2022/04/09 02:12:33;;;;;;;0.70;0.70;;;7.20;99.90;;;;;;5062007;28;20479;-80
2022/04/09 02:15:04;;;;;;;0.90;0.90;;;7.20;99.90;;;;;;5058657;28;20570;-80
2022/04/09 02:17:32;;;;;;;0.87;0.70;;;7.20;99.90;;;;;;5053782;28;20452;-80
2022/04/09 02:20:01;;;;;;;0.70;0.63;;;7.20;99.90;;;;;;5056895;28;20446;-79
2022/04/09 02:22:35;;;;;;;0.70;0.70;;;7.50;99.90;;;;;;5056798;28;20476;-79
2022/04/09 02:25:03;;;;;;;0.83;0.80;;;7.20;99.90;;;;;;5059275;28;20469;-80
2022/04/09 02:27:32;;;;;;;0.80;0.80;;;7.20;99.90;;;;;;5060586;28;20481;-80
2022/04/09 02:30:00;;;;;;;1.03;0.93;;;7.20;99.90;;;;;;5062610;28;20473;-80
2022/04/09 02:32:29;;;;;;;0.70;0.70;;;7.10;99.90;;;;;;5055529;28;20506;-80
2022/04/09 02:34:57;;;;;;;0.70;0.70;;;7.30;99.90;;;;;;5057860;28;20464;-80
2022/04/09 02:37:25;;;;;;;1.00;0.70;;;7.60;99.90;;;;;;5059542;28;20466;-79
2022/04/09 02:39:53;;;;;;;1.00;0.90;;;7.30;99.90;;;;;;5057464;28;20677;-79
2022/04/09 02:42:22;;;;;;;0.80;0.80;;;7.20;99.90;;;;;;5058810;28;20530;-80
2022/04/09 02:44:50;;;;;;;1.03;0.93;;;7.40;99.90;;;;;;5063238;28;20481;-79
2022/04/09 02:47:18;;;;;;;2.10;1.10;;;7.10;99.90;;;;;;5057310;28;20532;-80
2022/04/09 02:49:48;;;;;;;1.40;1.30;;;7.10;99.90;;;;;;5054600;28;20483;-79
2022/04/09 02:52:16;;;;;;;0.80;0.80;;;7.10;99.90;;;;;;5055197;28;20479;-79
2022/04/09 02:54:44;;;;;;;1.43;1.10;;;7.10;99.90;;;;;;5054845;28;20451;-80
2022/04/09 02:57:15;;;;;;;0.90;0.90;;;7.10;99.90;;;;;;5060407;28;20505;-78
2022/04/09 02:59:44;;;;;;;0.97;0.83;;;7.10;99.90;;;;;;5054320;28;20778;-79
2022/04/09 03:02:12;;;;;;;1.00;1.00;;;7.10;99.90;;;;;;5055179;28;20459;-78
2022/04/09 03:04:40;;;;;;;0.80;0.80;;;7.10;99.90;;;;;;5060463;28;20463;-78
2022/04/09 03:07:10;;;;;;;1.67;0.90;;;7.00;99.90;;;;;;5062748;28;20963;-78
2022/04/09 03:09:38;;;;;;;1.00;1.00;;;7.10;99.90;;;;;;5062860;28;21079;-78
2022/04/09 03:12:07;;;;;;;0.90;0.90;;;7.00;99.90;;;;;;5063362;28;20980;-80
2022/04/09 03:14:35;;;;;;;0.90;0.90;;;7.00;99.90;;;;;;5059035;28;20445;-80
2022/04/09 03:17:04;;;;;;;0.70;0.70;;;7.00;99.90;;;;;;5066053;28;20589;-79
2022/04/09 03:19:32;;;;;;;1.20;1.10;;;7.00;99.90;;;;;;5059442;28;20447;-79
2022/04/09 03:22:00;;;;;;;1.37;0.90;;;7.00;99.90;;;;;;5064726;28;20456;-80
2022/04/09 03:24:30;;;;;;;1.10;1.00;;;7.20;99.90;;;;;;5057260;28;20462;-79
2022/04/09 03:26:58;;;;;;;1.00;0.87;;;7.00;99.90;;;;;;5060342;28;20959;-80
2022/04/09 03:29:26;;;;;;;1.77;0.90;;;7.10;99.90;;;;;;5059998;28;20475;-78
2022/04/09 03:31:54;;;;;;;1.07;1.00;;;7.10;99.90;;;;;;5061296;28;20456;-80
2022/04/09 03:34:23;;;;;;;1.40;1.30;;;7.40;99.90;;;;;;5060735;28;20443;-79
2022/04/09 03:36:51;;;;;;;0.80;0.80;;;7.10;99.90;;;;;;5056255;28;20481;-78
2022/04/09 03:39:19;;;;;;;1.13;1.03;;;7.10;99.90;;;;;;5058116;28;20454;-79
2022/04/09 03:41:48;;;;;;;0.80;0.80;;;7.20;99.90;;;;;;5062798;28;20455;-80
2022/04/09 03:44:36;;;;;;;1.30;0.90;;;7.30;99.90;;;;;;5062600;28;20447;-80
2022/04/09 03:47:06;;;;;;;0.97;0.93;;;7.20;99.90;;;;;;5066508;28;20495;-79
2022/04/09 03:49:34;;;;;;;0.90;0.90;;;7.20;99.90;;;;;;5060790;28;21132;-80
2022/04/09 03:52:03;;;;;;;1.20;0.90;;;7.20;99.90;;;;;;5064730;28;20501;-81
2022/04/09 03:54:32;;;;;;;0.90;0.90;;;7.20;99.90;;;;;;5065049;28;20459;-79
2022/04/09 03:57:03;;;;;;;1.13;0.90;;;7.10;99.90;;;;;;5061258;28;20452;-79
2022/04/09 03:59:31;;;;;;;1.30;1.20;;;7.20;99.90;;;;;;5065620;28;20466;-80
2022/04/09 04:01:59;;;;;;;1.30;1.20;;;7.20;99.90;;;;;;5061023;28;20448;-80
2022/04/09 04:04:27;;;;;;;1.50;1.40;;;7.50;99.90;;;;;;5061770;28;21325;-80
2022/04/09 04:06:55;;;;;;;1.30;1.20;;;7.30;99.90;;;;;;5061129;28;20454;-79
2022/04/09 04:09:24;;;;;;;1.80;1.40;;;7.30;99.90;;;;;;5058467;28;20452;-80
2022/04/09 04:11:52;;;;;;;2.03;1.40;;;7.20;99.90;;;;;;5056442;28;20483;-80
2022/04/09 04:14:22;;;;;;;2.90;2.20;;;7.30;99.90;;;;;;5061942;28;20581;-80
2022/04/09 04:16:50;;;;;;;2.97;1.77;;;7.30;99.90;;;;;;5060667;28;20448;-79
2022/04/09 04:19:18;;;;;;;2.30;2.10;;;7.30;99.90;;;;;;5059263;28;20467;-77
2022/04/09 04:21:47;;;;;;;5.30;2.13;;;7.20;99.90;;;;;;5065248;28;20475;-79
2022/04/09 04:24:15;;;;;;;4.50;2.27;;;7.30;99.90;;;;;;5063572;28;20489;-80
2022/04/09 04:26:43;;;;;;;2.17;2.03;;;7.30;99.90;;;;;;5060499;28;20462;-79
2022/04/09 04:29:14;;;;;;;3.67;2.47;;;7.60;99.90;;;;;;5066742;28;20459;-80
2022/04/09 04:31:44;;;;;;;5.47;3.40;;;7.30;99.90;;;;;;5059913;28;20479;-79
2022/04/09 04:34:12;;;;;;;3.40;3.03;;;7.20;99.90;;;;;;5066888;28;20858;-79
2022/04/09 04:36:40;;;;;;;4.77;3.50;;;7.10;99.90;;;;;;5063812;28;21037;-79
2022/04/09 04:39:08;;;;;;;5.90;3.60;;;7.20;99.90;;;;;;5063060;28;20465;-79
2022/04/09 04:41:36;;;;;;;5.53;3.70;;;7.20;99.90;;;;;;5055873;28;20452;-80
2022/04/09 04:44:06;;;;;;;4.90;3.53;;;7.20;99.90;;;;;;5061037;28;21062;-79
2022/04/09 04:46:36;;;;;;;4.83;3.93;;;7.20;99.90;;;;;;5062527;28;20929;-80
2022/04/09 04:49:06;;;;;;;4.60;3.67;;;7.20;99.90;;;;;;5061708;28;20447;-80
2022/04/09 04:51:34;;;;;;;3.93;2.97;;;7.20;99.90;;;;;;5061780;28;21023;-80
2022/04/09 04:54:03;;;;;;;5.23;2.73;;;7.20;99.90;;;;;;5053914;28;20478;-80
2022/04/09 04:56:31;;;;;;;6.40;3.53;;;7.20;99.90;;;;;;5052776;28;20472;-79
2022/04/09 04:58:59;;;;;;;7.20;4.20;;;7.20;99.90;;;;;;5057520;28;20460;-79
2022/04/09 05:01:28;;;;;;;3.50;3.20;;;7.20;99.90;;;;;;5059551;28;20448;-79
2022/04/09 05:03:56;;;;;;;4.97;3.43;;;7.20;99.90;;;;;;5059083;28;20490;-80
2022/04/09 05:06:26;;;;;;;3.63;2.73;;;7.20;99.90;;;;;;5057197;28;20464;-79
2022/04/09 05:08:54;;;;;;;3.70;3.40;;;7.30;99.90;;;;;;5056017;28;20455;-79
2022/04/09 05:11:22;;;;;;;4.53;3.40;;;7.20;99.90;;;;;;5054242;28;20483;-79
2022/04/09 05:13:50;;;;;;;3.53;3.23;;;7.20;99.90;;;;;;5059501;28;20487;-79
2022/04/09 05:16:18;;;;;;;3.77;3.23;;;7.20;99.90;;;;;;5055966;28;20451;-79
2022/04/09 05:18:47;;;;;;;4.10;2.60;;;7.40;99.90;;;;;;5056237;28;20459;-80
2022/04/09 05:21:15;;;;;;;3.70;2.87;;;7.20;99.90;;;;;;5055462;28;20447;-80
2022/04/09 05:23:45;;;;;;;4.13;2.80;;;7.40;99.90;;;;;;5061824;28;20471;-79
2022/04/09 05:26:13;;;;;;;2.80;2.60;;;7.40;99.90;;;;;;5059288;28;20450;-78
2022/04/09 05:28:41;;;;;;;4.47;2.63;;;7.40;99.90;;;;;;5059142;28;20466;-78
2022/04/09 05:31:11;;;;;;;3.30;2.83;;;7.30;99.90;;;;;;5051770;28;20478;-77
2022/04/09 05:33:40;;;;;;;3.63;2.30;;;7.30;99.90;;;;;;5052927;28;20478;-78
2022/04/09 05:36:08;;;;;;;3.23;2.33;;;7.30;99.90;;;;;;5053724;28;20802;-78
2022/04/09 05:38:36;;;;;;;2.70;2.50;;;7.20;99.90;;;;;;5051720;28;20463;-78
2022/04/09 05:41:06;;;;;;;3.90;2.67;;;7.20;99.90;;;;;;5060039;28;20459;-77
2022/04/09 05:43:34;;;;;;;4.70;3.10;;;7.20;99.90;;;;;;5055103;28;20470;-78
2022/04/09 05:46:02;;;;;;;5.67;2.60;;;7.10;99.90;;;;;;5052354;28;21235;-77
2022/04/09 05:48:30;;;;;;;2.83;2.63;;;7.10;99.90;;;;;;5055837;28;20521;-77
2022/04/09 05:50:58;;;;;;;5.50;3.38;;;7.20;99.90;;;;;;5053027;28;20892;-78
2022/04/09 05:53:27;;;;;;;3.97;3.00;;;7.10;99.90;;;;;;5053849;28;20633;-79
2022/04/09 05:55:55;;;;;;;2.87;2.67;;;7.20;99.90;;;;;;5055311;28;20459;-78
2022/04/09 05:58:24;;;;;;;4.67;3.57;;;7.20;99.90;;;;;;5056802;28;20473;-78
2022/04/09 06:00:53;;;;;;;2.60;2.40;;;7.20;99.90;;;;;;5056506;28;20837;-78
2022/04/09 06:03:22;;;;;;;2.80;2.60;;;7.30;99.90;;;;;;5057954;28;20467;-77
2022/04/09 06:05:51;;;;;;;2.90;2.63;;;7.20;99.90;;;;;;5052649;28;20895;-78
2022/04/09 06:08:19;;;;;;;4.90;2.97;;;7.50;99.90;;;;;;5052233;28;20455;-76
2022/04/09 06:10:47;;;;;;;2.93;2.63;;;7.10;99.90;;;;;;5051039;28;20463;-77
2022/04/09 06:13:16;;;;;;;5.80;2.57;;;7.30;99.90;;;;;;5049584;28;20475;-76
2022/04/09 06:15:45;;;;;;;3.73;2.53;;;7.40;99.90;;;;;;5054154;28;20454;-78
2022/04/09 06:18:14;;;;;;;2.47;2.10;;;7.80;99.90;;;;;;5056782;28;20511;-75
2022/04/09 06:20:43;;;;;;;2.30;1.90;;;7.70;99.90;;;;;;5054624;28;20454;-75
2022/04/09 06:23:11;;;;;;;4.70;2.80;;;7.40;99.90;;;;;;5051633;28;20872;-75
2022/04/09 06:25:39;;;;;;;3.70;2.60;;;7.50;99.90;;;;;;5051919;28;20466;-73
2022/04/09 06:28:08;;;;;;;5.50;2.77;;;7.80;99.90;;;;;;5051443;28;21069;-75
2022/04/09 06:30:38;;;;;;;4.67;3.07;;;8.00;99.90;;;;;;5049947;28;20451;-75
2022/04/09 06:33:07;;;;;;;5.47;2.60;;;8.10;99.90;;;;;;5051887;28;20487;-75
2022/04/09 06:35:37;;;;;;;3.90;2.90;;;8.30;99.90;;;;;;5051141;28;20538;-75
2022/04/09 06:38:05;;;;;;;4.17;3.77;;;8.50;99.90;;;;;;5049000;28;20874;-76
2022/04/09 06:40:33;;;;;;;5.50;3.00;;;8.70;99.90;;;;;;5052191;28;20458;-76
2022/04/09 06:43:01;;;;;;;3.00;2.70;;;8.80;99.90;;;;;;5052496;28;20555;-76
2022/04/09 06:45:29;;;;;;;4.50;2.67;;;9.10;99.90;;;;;;5055651;28;20447;-77
2022/04/09 06:47:58;;;;;;;5.40;3.00;;;9.00;99.90;;;;;;5056307;28;20455;-76
2022/04/09 06:50:29;;;;;;;4.23;2.80;;;9.00;99.90;;;;;;5056291;28;20469;-76
2022/04/09 06:52:57;;;;;;;3.90;2.50;;;9.30;99.90;;;;;;5057300;28;21311;-77
2022/04/09 06:55:26;;;;;;;4.37;3.73;;;9.00;99.90;;;;;;5064216;28;20454;-78
2022/04/09 06:58:00;;;;;;;5.47;3.13;;;9.00;99.90;;;;;;5054756;28;20993;-77
2022/04/09 07:00:29;;;;;;;3.87;2.43;;;8.90;99.90;;;;;;5059324;28;20479;-77
2022/04/09 07:02:57;;;;;;;2.77;2.50;;;8.80;99.90;;;;;;5063349;28;21002;-76
2022/04/09 07:05:27;;;;;;;3.60;2.50;;;8.60;99.90;;;;;;5064703;28;20985;-77
2022/04/09 07:07:55;;;;;;;2.70;2.50;;;8.60;99.90;;;;;;5059418;28;20465;-77
2022/04/09 07:10:24;;;;;;;3.53;2.00;;;8.60;99.90;;;;;;5060675;28;20533;-78
2022/04/09 07:12:52;;;;;;;3.60;2.20;;;8.30;99.90;;;;;;5054995;28;20484;-77
2022/04/09 07:15:20;;;;;;;4.30;2.47;;;8.30;99.90;;;;;;5058998;28;20452;-78
2022/04/09 07:17:48;;;;;;;2.63;2.20;;;8.30;99.90;;;;;;5064657;28;20453;-77
2022/04/09 07:20:16;;;;;;;7.10;2.80;;;8.30;99.90;;;;;;5061074;28;20450;-78
2022/04/09 07:22:46;;;;;;;4.17;2.57;;;8.30;99.90;;;;;;5054078;28;20463;-78
2022/04/09 07:25:14;;;;;;;2.60;2.40;;;8.40;99.90;;;;;;5055604;28;21073;-78
2022/04/09 07:27:44;;;;;;;3.30;2.00;;;8.20;99.90;;;;;;5059705;28;20835;-78
2022/04/09 07:30:15;;;;;;;2.27;2.07;;;8.10;99.90;;;;;;5059263;28;21093;-76
2022/04/09 07:32:43;;;;;;;2.67;2.47;;;8.10;99.90;;;;;;5063670;28;20479;-77
2022/04/09 07:35:12;;;;;;;11.03;2.60;;;8.00;99.90;;;;;;5058125;28;20450;-77
2022/04/09 07:37:41;;;;;;;2.50;1.73;;;8.10;99.90;;;;;;5058366;28;20514;-76
2022/04/09 07:40:12;;;;;;;2.73;2.27;;;8.20;99.90;;;;;;5059409;28;20459;-77
2022/04/09 07:42:42;;;;;;;2.80;2.57;;;8.20;99.90;;;;;;5063725;28;20472;-76
2022/04/09 07:45:12;;;;;;;9.30;2.43;;;8.10;99.90;;;;;;5060371;28;20454;-77
2022/04/09 07:47:41;;;;;;;2.77;2.30;;;8.10;99.90;;;;;;5053600;28;20467;-77
2022/04/09 07:50:10;;;;;;;2.80;2.07;;;8.20;99.90;;;;;;5053608;28;20447;-77
2022/04/09 07:52:40;;;;;;;2.80;2.13;;;8.00;99.90;;;;;;5053364;28;20490;-76
2022/04/09 07:55:09;;;;;;;5.40;2.60;;;7.90;99.90;;;;;;5047600;28;20466;-78
2022/04/09 07:57:39;;;;;;;2.73;2.07;;;7.90;99.90;;;;;;5053271;28;20443;-76
2022/04/09 08:00:09;;;;;;;2.20;1.83;;;8.10;99.90;;;;;;5046198;28;20540;-77
2022/04/09 08:02:37;;;;;;;6.60;2.60;;;8.10;99.90;;;;;;5054503;28;20470;-77
2022/04/09 08:05:05;;;;;;;3.20;2.60;;;8.10;99.90;;;;;;5051149;28;20460;-76
2022/04/09 08:07:34;;;;;;;5.60;2.30;;;8.10;99.90;;;;;;5055525;28;20447;-77
2022/04/09 08:10:02;;;;;;;1.67;1.57;;;8.40;99.90;;;;;;5050853;28;20459;-77
2022/04/09 08:12:30;;;;;;;3.97;2.57;;;8.10;99.90;;;;;;5050268;28;20494;-79
2022/04/09 08:14:59;;;;;;;2.80;1.90;;;8.40;99.90;;;;;;5059422;28;20810;-77
2022/04/09 08:17:28;;;;;;;5.37;1.90;;;8.40;99.90;;;;;;5059025;28;20494;-78
2022/04/09 08:19:56;;;;;;;2.47;1.70;;;8.70;99.90;;;;;;5053703;28;20477;-77
2022/04/09 08:22:25;;;;;;;3.60;1.57;;;8.40;99.90;;;;;;5051399;28;20472;-78
2022/04/09 08:24:53;;;;;;;3.83;2.03;;;8.40;99.90;;;;;;5053926;28;20466;-77
2022/04/09 08:27:22;;;;;;;2.13;1.70;;;8.40;99.90;;;;;;5048406;28;20440;-78
2022/04/09 08:29:50;;;;;;;2.43;2.13;;;8.50;99.90;;;;;;5053877;28;20509;-77
2022/04/09 08:32:20;;;;;;;3.13;2.00;;;8.50;99.90;;;;;;5052743;28;20516;-77
2022/04/09 08:34:48;;;;;;;5.43;2.30;;;8.60;99.90;;;;;;5057916;28;20464;-76
2022/04/09 08:37:16;;;;;;;2.00;1.77;;;8.60;99.90;;;;;;5053912;28;20461;-76
2022/04/09 08:39:44;;;;;;;2.47;1.70;;;8.40;99.90;;;;;;5056385;28;20454;-77
2022/04/09 08:42:15;;;;;;;1.87;1.60;;;8.50;99.90;;;;;;5058027;28;20466;-75
2022/04/09 08:44:43;;;;;;;4.13;1.97;;;8.60;99.90;;;;;;5052856;28;21400;-76
2022/04/09 08:47:14;;;;;;;1.70;1.60;;;8.70;99.90;;;;;;5056637;28;21151;-77
2022/04/09 08:49:46;;;;;;;1.83;1.70;;;8.50;99.90;;;;;;5062129;28;20454;-76
2022/04/09 08:52:14;;;;;;;2.50;2.30;;;8.30;99.90;;;;;;5058936;28;20491;-78
2022/04/09 08:54:43;;;;;;;3.33;1.50;;;8.50;99.90;;;;;;5056831;28;21027;-77
2022/04/09 08:57:11;;;;;;;6.43;2.40;;;8.40;99.90;;;;;;5057765;28;20451;-79
2022/04/09 08:59:39;;;;;;;1.83;1.60;;;8.30;99.90;;;;;;5057126;28;20455;-77
2022/04/09 09:02:08;;;;;;;2.40;2.20;;;8.40;99.90;;;;;;5063466;28;20458;-77
2022/04/09 09:04:36;;;;;;;2.37;1.80;;;8.80;99.90;;;;;;5060420;28;20458;-77
2022/04/09 09:07:20;;;;;;;2.17;1.63;;;8.50;99.90;;;;;;5055416;28;20460;-77
2022/04/09 09:09:50;;;;;;;3.03;1.67;;;8.50;99.90;;;;;;5050941;28;20470;-79
2022/04/09 09:12:29;;;;;;;3.07;1.70;;;8.60;99.90;;;;;;5062320;28;20478;-79
2022/04/09 09:14:58;;;;;;;3.30;2.00;;;8.90;99.90;;;;;;5055887;28;20442;-77
2022/04/09 09:17:29;;;;;;;2.70;1.50;;;8.60;99.90;;;;;;5051853;28;20202;-77
2022/04/09 09:19:57;;;;;;;3.40;1.50;;;8.60;99.90;;;;;;5058764;28;20464;-77
2022/04/09 09:22:38;;;;;;;3.30;1.70;;;8.60;99.90;;;;;;5052545;28;20479;-78
2022/04/09 09:25:08;;;;;;;1.73;1.63;;;8.70;99.90;;;;;;5059142;28;20464;-77
2022/04/09 09:27:36;;;;;;;3.67;1.40;;;8.80;99.90;;;;;;5061742;28;21182;-77
2022/04/09 09:30:06;;;;;;;4.60;1.80;;;8.70;99.90;;;;;;5055919;28;20468;-76
2022/04/09 09:32:34;;;;;;;1.53;1.43;;;8.80;99.90;;;;;;5064282;28;20477;-78
2022/04/09 09:35:12;;;;;;;2.07;1.53;;;8.80;99.90;;;;;;5054038;28;20461;-78
2022/04/09 09:37:41;;;;;;;3.53;1.70;;;8.90;99.90;;;;;;5053439;28;20477;-77
2022/04/09 09:40:10;;;;;;;3.13;1.43;;;8.90;99.90;;;;;;5059143;28;20448;-78
2022/04/09 09:42:39;;;;;;;2.03;1.50;;;9.00;99.90;;;;;;5059544;28;20533;-77
2022/04/09 09:45:09;;;;;;;2.50;1.30;;;9.00;99.90;;;;;;5053240;28;20539;-77
2022/04/09 09:47:55;;;;;;;2.57;1.40;;;9.00;99.90;;;;;;5054687;28;20756;-79
2022/04/09 09:50:40;;;;;;;1.33;1.23;;;9.00;99.90;;;;;;5055234;28;20460;-77
2022/04/09 09:53:10;;;;;;;1.50;1.40;;;9.00;99.90;;;;;;5056910;28;20572;-78
2022/04/09 09:55:42;;;;;;;2.80;1.20;;;9.10;99.90;;;;;;5055024;28;20468;-77
2022/04/09 09:58:13;;;;;;;1.33;1.20;;;9.40;99.90;;;;;;5057886;28;20523;-79
2022/04/09 10:01:02;;;;;;;4.67;1.50;;;9.20;99.90;;;;;;5052086;28;20582;-77
2022/04/09 10:03:30;;;;;;;2.33;1.70;;;9.30;99.90;;;;;;5054289;28;20486;-78
2022/04/09 10:05:58;;;;;;;2.03;1.90;;;9.20;99.90;;;;;;5056455;28;21166;-78
2022/04/09 10:08:27;;;;;;;2.63;1.90;;;9.30;99.90;;;;;;5054442;28;20450;-78
2022/04/09 10:11:01;;;;;;;2.50;1.63;;;9.20;99.90;;;;;;5055498;28;20464;-78
2022/04/09 10:13:33;;;;;;;1.43;1.33;;;9.20;99.90;;;;;;5061405;28;20485;-78
2022/04/09 10:16:04;;;;;;;3.53;1.20;;;9.20;99.90;;;;;;5053566;28;20446;-78
2022/04/09 10:18:33;;;;;;;4.60;1.40;;;9.20;99.90;;;;;;5059153;28;20950;-78
2022/04/09 10:21:03;;;;;;;1.60;1.50;;;9.20;99.90;;;;;;5065063;28;21076;-78
2022/04/09 10:23:35;;;;;;;2.37;1.53;;;9.20;99.90;;;;;;5063923;28;20468;-77
2022/04/09 10:26:04;;;;;;;4.93;1.33;;;9.20;99.90;;;;;;5062813;28;20470;-78
2022/04/09 10:28:34;;;;;;;3.13;1.40;;;9.10;99.90;;;;;;5063859;28;20453;-77
2022/04/09 10:31:03;;;;;;;2.83;1.20;;;9.00;99.90;;;;;;5054986;28;20441;-76
2022/04/09 10:33:36;;;;;;;2.70;1.50;;;9.10;99.90;;;;;;5055008;28;20479;-75
2022/04/09 10:36:05;;;;;;;1.30;1.13;;;9.10;99.90;;;;;;5055108;28;20510;-76
2022/04/09 10:38:38;;;;;;;4.23;1.30;;;9.00;99.90;;;;;;5059258;28;20464;-78
2022/04/09 10:41:25;;;;;;;3.23;1.20;;;9.10;99.90;;;;;;5059165;28;20992;-78
2022/04/09 10:43:57;;;;;;;3.43;1.97;;;9.20;99.90;;;;;;5057541;28;20550;-78
2022/04/09 10:46:38;;;;;;;5.83;1.50;;;9.30;99.90;;;;;;5054289;28;20441;-78
2022/04/09 10:49:19;;;;;;;1.33;1.20;;;9.50;99.90;;;;;;5055691;28;20456;-76
2022/04/09 10:52:23;;;;;;;3.30;1.40;;;9.40;99.90;;;;;;5062301;28;20477;-78
2022/04/09 10:55:33;;;;;;;1.20;1.10;;;9.30;99.90;;;;;;5054846;28;20488;-79
2022/04/09 10:58:08;;;;;;;5.00;1.50;;;9.30;99.90;;;;;;5063428;28;20975;-78
2022/04/09 11:00:37;;;;;;;6.27;1.60;;;9.30;99.90;;;;;;5059168;28;20863;-77
2022/04/09 11:03:13;;;;;;;2.23;1.27;;;9.30;99.90;;;;;;5063336;28;20507;-77
2022/04/09 11:05:43;;;;;;;3.60;1.53;;;9.40;99.90;;;;;;5058862;28;20454;-74
2022/04/09 11:08:14;;;;;;;4.82;1.60;;;9.60;99.90;;;;;;5063035;28;20916;-78
2022/04/09 11:10:44;;;;;;;5.23;2.10;;;9.80;99.90;;;;;;5047195;28;20212;-78
2022/04/09 11:13:14;;;;;;;1.60;1.33;;;9.80;99.90;;;;;;5051759;28;20476;-78
2022/04/09 11:15:44;;;;;;;3.30;1.70;;;9.60;99.90;;;;;;5053122;28;20554;-78
2022/04/09 11:18:13;;;;;;;1.50;1.40;;;9.60;99.90;;;;;;5054043;28;20432;-80
2022/04/09 11:20:41;;;;;;;3.00;1.20;;;9.50;99.90;;;;;;5063810;28;20964;-75
2022/04/09 11:23:12;;;;;;;3.27;1.57;;;9.60;99.90;;;;;;5060807;28;20480;-77
2022/04/09 11:25:43;;;;;;;3.40;1.40;;;9.60;99.90;;;;;;5053793;28;21023;-77
2022/04/09 11:28:16;;;;;;;3.23;1.30;;;9.60;99.90;;;;;;5061270;28;20971;-77
2022/04/09 11:30:54;;;;;;;2.80;1.50;;;9.60;99.90;;;;;;5063898;28;20446;-72
2022/04/09 11:33:23;;;;;;;4.93;1.50;;;9.70;99.90;;;;;;5054977;28;20438;-78
2022/04/09 11:35:52;;;;;;;5.13;1.50;;;10.00;99.90;;;;;;5065349;28;20231;-78
2022/04/09 11:38:23;;;;;;;1.67;1.23;;;10.10;99.90;;;;;;5060679;28;20449;-79
2022/04/09 11:40:52;;;;;;;2.40;1.30;;;10.10;99.90;;;;;;5054447;28;20980;-78
2022/04/09 11:43:23;;;;;;;1.30;1.20;;;10.10;99.90;;;;;;5053512;28;20237;-77
2022/04/09 11:45:52;;;;;;;5.57;2.07;;;10.10;99.90;;;;;;5059669;28;20475;-77
2022/04/09 11:48:22;;;;;;;4.03;1.50;;;10.00;99.90;;;;;;5061214;28;20444;-77
2022/04/09 11:50:51;;;;;;;1.27;1.10;;;9.90;99.90;;;;;;5076554;28;20442;-77
2022/04/09 11:53:21;;;;;;;4.63;1.13;;;9.80;99.90;;;;;;5068146;28;20481;-76
2022/04/09 11:55:58;;;;;;;2.13;1.30;;;9.80;99.90;;;;;;5057721;28;20480;-77
2022/04/09 11:58:32;;;;;;;2.87;1.40;;;9.90;99.90;;;;;;5052750;28;20465;-76
2022/04/09 12:01:01;;;;;;;2.30;1.20;;;9.80;99.90;;;;;;5065808;28;20473;-77
2022/04/09 12:03:29;;;;;;;1.90;1.30;;;9.70;97.20;;;;;;5064158;28;20487;-76
2022/04/09 12:06:01;;;;;;;1.03;0.93;;;9.80;99.30;;;;;;5060652;28;20490;-74
2022/04/09 12:08:33;;;;;;;3.13;1.03;;;10.10;99.50;;;;;;5080697;28;20464;-77
2022/04/09 12:11:03;;;;;;;1.60;1.40;;;10.00;86.60;;;;;;5061749;28;20468;-75
2022/04/09 12:13:35;;;;;;;1.73;1.20;;;10.10;91.00;;;;;;5056518;28;20488;-78
2022/04/09 12:16:18;;;;;;;1.40;1.30;;;10.10;89.30;;;;;;5063869;28;20481;-77
2022/04/09 12:18:48;;;;;;;3.90;1.30;;;10.10;96.80;;;;;;5068424;28;20462;-74
2022/04/09 12:21:21;;;;;;;2.20;1.10;;;10.20;99.90;;;;;;5067634;28;20465;-77
2022/04/09 12:24:00;;;;;;;1.53;1.10;;;10.30;93.80;;;;;;5065967;28;20491;-77
2022/04/09 12:26:30;;;;;;;1.60;1.10;;;10.20;76.80;;;;;;5062651;28;21065;-76
2022/04/09 12:29:11;;;;;;;1.33;1.10;;;10.20;68.10;;;;;;5061407;28;20461;-76
2022/04/09 12:31:40;;;;;;;1.10;1.00;;;10.30;70.80;;;;;;5059625;28;21038;-75
2022/04/09 12:34:09;;;;;;;5.80;2.70;;;10.40;70.60;;;;;;5057757;28;20468;-77
2022/04/09 12:36:38;;;;;;;2.50;1.00;;;10.40;69.10;;;;;;5054535;28;20905;-76
2022/04/09 12:39:26;;;;;;;1.53;0.90;;;10.40;48.50;;;;;;5057156;28;20482;-76
2022/04/09 12:41:54;;;;;;;1.70;1.10;;;10.20;49.40;;;;;;5053005;28;20451;-76
2022/04/09 12:44:28;;;;;;;0.80;0.80;;;10.40;47.20;;;;;;5055695;28;20485;-78
2022/04/09 12:46:56;;;;;;;1.30;0.80;;;10.20;62.10;;;;;;5058489;28;20583;-75
2022/04/09 12:49:28;;;;;;;2.80;0.80;;;10.30;50.90;;;;;;5053997;28;20875;-76
2022/04/09 12:51:57;;;;;;;1.50;1.00;;;10.40;41.00;;;;;;5054483;28;20451;-75
2022/04/09 12:54:27;;;;;;;2.60;2.17;;;10.40;40.90;;;;;;5054469;28;20474;-75
2022/04/09 12:56:55;;;;;;;3.30;1.23;;;10.60;45.50;;;;;;5057758;28;20484;-76
2022/04/09 12:59:24;;;;;;;2.43;0.90;;;10.80;46.60;;;;;;5056318;28;20449;-75
2022/04/09 13:01:54;;;;;;;2.90;1.07;;;10.90;40.30;;;;;;5057255;28;20460;-74
2022/04/09 13:04:22;;;;;;;1.83;1.00;;;10.80;31.50;;;;;;5054734;28;20515;-76
2022/04/09 13:06:50;;;;;;;1.00;1.00;;;10.80;35.50;;;;;;5053160;28;20444;-75
2022/04/09 13:09:19;;;;;;;1.70;1.10;;;10.80;34.90;;;;;;5054127;28;20452;-75